Greenback, Tennessee
Current Conditions -  °F | °C
As of 4:53 PM on Wednesday 26 Nov 2014 (Local Time) from KTYS Reporting Station
Broken Clouds Broken Clouds  
Wind Chill: 44°   Ceiling: 25000
Heat Index: 48°   Visibility: 10mi
Dew Point: 25°   Wind: 8mph
Humidity: 41%   Direction: 230°SW
Pressure: 30.02"   Gusts: NA
Location:  35.66°N, 84.17°W
Report Text: KTYS 262153Z 23007KT 10SM FEW050 BKN250 09/M04 A3002 RMK AO2 SLP165 T00891039
Loading
Personal Weather Stations






























Interactive Weather Map New forecast layout! Learn more

10-Day Weather Forecast

Advertisements
Track Severe Weather on mobile